createdAt,value
2018-05-15T00:00:07.812Z,21.80
2018-05-15T00:02:09.722Z,22.80
2018-05-15T00:03:04.693Z,22.10
2018-05-15T00:04:55.449Z,13.50
2018-05-15T00:05:55.681Z,16.10
2018-05-15T00:07:48.846Z,19.00
2018-05-15T00:08:48.484Z,16.50
2018-05-15T00:10:42.755Z,16.50
2018-05-15T00:11:42.257Z,14.70
2018-05-15T00:13:35.448Z,15.10
2018-05-15T00:14:35.751Z,14.20
2018-05-15T00:16:29.481Z,20.60
2018-05-15T00:17:28.737Z,20.60
2018-05-15T00:19:22.200Z,19.90
2018-05-15T00:20:22.142Z,15.00
2018-05-15T00:22:17.189Z,15.40
2018-05-15T00:23:15.290Z,13.30
2018-05-15T00:25:10.915Z,16.70
2018-05-15T00:26:09.895Z,16.00
2018-05-15T00:28:03.191Z,12.10
2018-05-15T00:29:03.244Z,12.50
2018-05-15T00:30:55.829Z,14.90
2018-05-15T00:31:55.809Z,14.20
2018-05-15T00:33:49.559Z,12.60
2018-05-15T00:34:50.547Z,13.70
2018-05-15T00:36:43.497Z,12.10
2018-05-15T00:37:43.368Z,14.40
2018-05-15T00:39:44.332Z,17.10
2018-05-15T00:40:39.349Z,14.30
2018-05-15T05:36:22.577Z,19.80
2018-05-15T05:37:22.567Z,21.00
2018-05-15T05:39:16.526Z,17.60
2018-05-15T05:40:16.491Z,15.20
2018-05-15T05:42:14.454Z,13.70
2018-05-15T05:43:21.539Z,16.80
2018-05-15T05:45:07.513Z,14.90
2018-05-15T05:46:07.344Z,17.10
2018-05-15T05:48:00.686Z,14.60
2018-05-15T05:49:00.598Z,14.80
2018-05-15T05:50:54.670Z,17.60
2018-05-15T05:51:54.325Z,18.30
2018-05-15T05:53:47.243Z,17.30
2018-05-15T05:54:47.167Z,15.90
2018-05-15T05:56:40.084Z,17.50
2018-05-15T05:57:40.056Z,17.00
2018-05-15T05:59:33.729Z,19.20
2018-05-15T06:00:33.435Z,22.80
2018-05-15T06:02:26.623Z,16.30
2018-05-15T06:03:26.308Z,18.10
2018-05-15T06:05:19.225Z,17.50
2018-05-15T06:06:19.225Z,14.40
2018-05-15T06:08:12.325Z,19.60
2018-05-15T06:09:12.118Z,17.50
2018-05-15T06:11:05.116Z,19.40
2018-05-15T06:12:05.533Z,21.80
2018-05-15T06:13:59.113Z,19.50
2018-05-15T06:15:00.142Z,18.20
2018-05-15T06:16:51.921Z,18.80
2018-05-15T06:19:05.346Z,23.20
2018-05-15T06:20:04.177Z,20.60
2018-05-15T06:21:57.388Z,20.60
2018-05-15T06:22:57.061Z,17.10
2018-05-15T06:24:50.556Z,19.70
2018-05-15T06:25:50.753Z,17.70
2018-05-15T06:27:43.880Z,19.00
2018-05-15T06:28:43.834Z,17.80
2018-05-15T06:30:37.325Z,16.60
2018-05-15T06:31:36.746Z,20.00
2018-05-15T06:33:29.892Z,15.80
2018-05-15T06:34:29.620Z,21.30
2018-05-15T06:36:22.796Z,18.60
2018-05-15T06:37:22.558Z,16.90
2018-05-15T06:39:15.715Z,19.50
2018-05-15T06:40:15.413Z,19.70
2018-05-15T06:42:09.152Z,17.90
2018-05-15T06:43:08.819Z,18.70
2018-05-15T06:45:02.477Z,14.80
2018-05-15T06:46:02.192Z,13.00
2018-05-15T06:47:55.354Z,15.10
2018-05-15T06:48:55.110Z,17.10
2018-05-15T06:50:48.546Z,14.80
2018-05-15T06:51:48.488Z,18.20
2018-05-15T06:53:41.590Z,13.20
2018-05-15T06:54:41.386Z,17.40
2018-05-15T06:56:34.585Z,13.90
2018-05-15T06:57:34.283Z,14.70
2018-05-15T06:59:27.234Z,14.80
2018-05-15T07:00:27.192Z,14.50
2018-05-15T07:02:20.812Z,13.10
2018-05-15T07:03:20.576Z,13.50
2018-05-15T07:05:13.507Z,11.30
2018-05-15T07:06:13.546Z,10.70
2018-05-15T07:08:06.396Z,10.60
2018-05-15T07:09:06.371Z,12.50
2018-05-15T07:11:00.050Z,12.20
2018-05-15T07:11:59.756Z,12.80
2018-05-15T07:13:52.913Z,9.20
2018-05-15T07:14:52.647Z,9.60
2018-05-15T07:16:45.867Z,12.50
2018-05-15T07:17:45.602Z,9.50
2018-05-15T07:19:38.465Z,13.50
2018-05-15T07:20:38.459Z,15.90
2018-05-15T07:22:31.366Z,10.80
2018-05-15T07:23:31.343Z,10.30
2018-05-15T07:25:24.267Z,12.30
2018-05-15T07:26:24.262Z,10.50
2018-05-15T07:28:17.492Z,8.50
2018-05-15T07:29:17.130Z,6.70
2018-05-15T07:31:10.360Z,6.40
2018-05-15T07:32:10.032Z,6.50
2018-05-15T07:34:02.949Z,10.40
2018-05-15T07:35:02.934Z,10.60
2018-05-15T07:36:56.634Z,7.70
2018-05-15T07:37:56.317Z,10.30
2018-05-15T07:39:49.800Z,12.50
2018-05-15T07:40:49.705Z,8.40
2018-05-15T07:42:42.929Z,10.50
2018-05-15T07:43:42.603Z,10.20
2018-05-15T07:45:35.824Z,9.00
2018-05-15T07:46:35.503Z,9.40
2018-05-15T07:48:29.266Z,8.60
2018-05-15T07:49:28.433Z,10.70
2018-05-15T07:51:21.326Z,7.80
2018-05-15T07:52:21.291Z,11.00
2018-05-15T07:54:14.212Z,7.60
2018-05-15T07:55:14.210Z,6.10
2018-05-15T07:57:07.324Z,8.80
2018-05-15T07:58:07.096Z,10.20
2018-05-15T08:00:00.501Z,10.50
2018-05-15T08:01:00.475Z,7.80
2018-05-15T08:02:53.627Z,10.00
2018-05-15T08:03:53.368Z,10.20
2018-05-15T08:05:47.153Z,7.20
2018-05-15T08:06:46.342Z,8.80
2018-05-15T08:08:39.416Z,8.10
2018-05-15T08:09:39.163Z,9.90
2018-05-15T08:11:32.579Z,10.90
2018-05-15T08:12:32.540Z,9.30
2018-05-15T08:14:25.673Z,9.70
2018-05-15T08:15:25.459Z,11.50
2018-05-15T08:17:19.425Z,8.40
2018-05-15T08:18:18.615Z,12.30
2018-05-15T08:20:12.022Z,8.20
2018-05-15T08:21:12.001Z,8.50
2018-05-15T08:23:05.435Z,9.40
2018-05-15T08:24:05.410Z,6.10
2018-05-15T08:25:58.536Z,10.50
2018-05-15T08:26:58.302Z,9.90
2018-05-15T08:28:51.517Z,8.70
2018-05-15T08:29:51.207Z,5.70
2018-05-15T08:31:44.392Z,11.90
2018-05-15T08:32:44.112Z,10.40
2018-05-15T08:34:37.000Z,6.00
2018-05-15T08:35:37.072Z,8.70
2018-05-15T08:37:30.735Z,5.90
2018-05-15T08:38:30.377Z,9.50
2018-05-15T08:40:23.308Z,9.90
2018-05-15T08:41:23.560Z,9.10
2018-05-15T08:43:16.178Z,8.60
2018-05-15T08:44:16.157Z,8.50
2018-05-15T08:46:09.085Z,7.20
2018-05-15T08:47:09.059Z,10.20
2018-05-15T08:49:02.535Z,6.80
2018-05-15T08:50:01.964Z,7.80
2018-05-15T08:51:55.430Z,8.60
2018-05-15T08:52:54.837Z,12.30
2018-05-15T08:54:48.071Z,8.40
2018-05-15T08:55:47.762Z,8.30
2018-05-15T08:57:40.880Z,7.60
2018-05-15T08:58:40.649Z,7.70
2018-05-15T09:00:33.783Z,7.40
2018-05-15T09:01:33.523Z,9.60
2018-05-15T09:03:26.907Z,8.60
2018-05-15T09:04:26.901Z,6.20
2018-05-15T09:06:20.053Z,9.50
2018-05-15T09:07:19.789Z,10.90
2018-05-15T09:09:12.692Z,5.80
2018-05-15T09:10:12.670Z,8.80
2018-05-15T09:12:06.079Z,8.80
2018-05-15T09:13:06.077Z,8.70
2018-05-15T09:14:59.556Z,8.60
2018-05-15T09:15:59.027Z,8.80
2018-05-15T09:17:52.605Z,8.30
2018-05-15T09:18:52.331Z,6.80
2018-05-15T09:20:45.519Z,7.00
2018-05-15T09:21:45.227Z,6.70
2018-05-15T09:23:38.143Z,8.30
2018-05-15T09:24:38.093Z,12.30
2018-05-15T09:26:31.352Z,10.20
2018-05-15T09:27:31.249Z,11.70
2018-05-15T09:29:23.938Z,7.30
2018-05-15T09:30:23.899Z,7.70
2018-05-15T09:32:16.801Z,10.20
2018-05-15T09:33:16.762Z,9.10
2018-05-15T09:35:09.920Z,11.40
2018-05-15T09:36:09.677Z,7.70
2018-05-15T09:38:03.372Z,11.20
2018-05-15T09:39:03.041Z,8.00
2018-05-15T09:40:56.441Z,11.00
2018-05-15T09:41:56.422Z,6.30
2018-05-15T09:43:49.812Z,10.00
2018-05-15T09:44:49.787Z,7.40
2018-05-15T09:46:42.966Z,8.90
2018-05-15T09:47:42.678Z,9.40
2018-05-15T09:49:36.286Z,9.00
2018-05-15T09:50:36.059Z,11.30
2018-05-15T09:52:29.765Z,9.50
2018-05-15T09:53:28.956Z,8.50
2018-05-15T09:55:22.617Z,7.60
2018-05-15T09:56:22.317Z,6.60
2018-05-15T09:58:15.291Z,8.10
2018-05-15T09:59:15.210Z,6.80
2018-05-15T10:01:08.382Z,8.20
2018-05-15T10:02:08.093Z,10.10
2018-05-15T10:04:01.266Z,6.80
2018-05-15T10:05:01.006Z,6.80
2018-05-15T10:06:53.879Z,6.10
2018-05-15T10:07:53.898Z,6.50
2018-05-15T10:09:46.764Z,7.80
2018-05-15T10:10:46.761Z,10.60
2018-05-15T10:12:40.382Z,7.20
2018-05-15T10:13:40.130Z,8.30
2018-05-15T10:15:33.039Z,6.80
2018-05-15T10:16:33.012Z,7.10
2018-05-15T10:18:26.155Z,8.50
2018-05-15T10:19:25.910Z,6.30
2018-05-15T10:21:19.300Z,4.40
2018-05-15T10:22:19.282Z,8.70
2018-05-15T10:24:12.950Z,5.00
2018-05-15T10:25:12.688Z,4.70
2018-05-15T10:27:05.858Z,5.00
2018-05-15T10:28:05.574Z,8.00
2018-05-15T10:29:58.777Z,5.40
2018-05-15T10:30:58.437Z,4.70
2018-05-15T10:32:51.608Z,5.50
2018-05-15T10:33:51.327Z,5.90
2018-05-15T10:35:44.503Z,6.30
2018-05-15T10:36:44.235Z,5.30
2018-05-15T10:38:37.440Z,6.50
2018-05-15T10:39:37.089Z,4.10
2018-05-15T10:41:30.308Z,5.70
2018-05-15T10:42:29.988Z,7.70
2018-05-15T10:44:23.622Z,6.00
2018-05-15T10:45:23.354Z,4.90
2018-05-15T10:47:16.278Z,10.50
2018-05-15T10:48:16.248Z,6.70
2018-05-15T10:50:09.939Z,5.20
2018-05-15T10:51:09.643Z,6.10
2018-05-15T10:53:02.819Z,6.60
2018-05-15T10:54:02.512Z,7.40
2018-05-15T10:55:55.935Z,6.20
2018-05-15T10:56:55.900Z,4.90
2018-05-15T10:58:48.826Z,8.50
2018-05-15T10:59:48.805Z,6.50
2018-05-15T11:01:41.987Z,4.30
2018-05-15T11:02:41.665Z,5.40
2018-05-15T11:04:35.369Z,6.60
2018-05-15T11:05:35.058Z,8.40
2018-05-15T11:07:28.212Z,7.00
2018-05-15T11:08:27.960Z,5.50
2018-05-15T11:10:20.918Z,6.00
2018-05-15T11:11:20.816Z,8.10
2018-05-15T11:13:14.484Z,6.70
2018-05-15T11:14:14.222Z,8.10
2018-05-15T11:16:07.139Z,8.80
2018-05-15T11:17:07.085Z,10.30
2018-05-15T11:19:00.503Z,7.80
2018-05-15T11:20:00.461Z,7.50
2018-05-15T11:21:53.384Z,7.90
2018-05-15T11:22:53.357Z,9.50
2018-05-15T11:24:46.256Z,11.10
2018-05-15T11:25:46.243Z,8.00
2018-05-15T11:27:39.140Z,4.50
2018-05-15T11:28:39.117Z,5.30
2018-05-15T11:30:32.624Z,4.60
2018-05-15T11:31:32.504Z,6.40
2018-05-15T11:33:25.653Z,7.90
2018-05-15T11:34:25.405Z,9.70
2018-05-15T11:36:18.584Z,7.00
2018-05-15T11:37:18.293Z,5.90
2018-05-15T11:39:11.460Z,5.80
2018-05-15T11:40:11.164Z,7.00
2018-05-15T11:42:04.076Z,7.70
2018-05-15T11:43:04.040Z,8.30
2018-05-15T11:44:57.657Z,7.40
2018-05-15T11:45:57.431Z,11.50
2018-05-15T11:47:50.953Z,8.30
2018-05-15T11:48:50.809Z,10.10
2018-05-15T11:50:44.316Z,6.60
2018-05-15T11:51:43.985Z,6.20
2018-05-15T11:53:36.864Z,8.00
2018-05-15T11:54:36.582Z,8.20
2018-05-15T11:56:29.504Z,8.40
2018-05-15T11:57:29.472Z,10.50
2018-05-15T11:59:23.054Z,8.60
2018-05-15T12:00:22.831Z,6.30
2018-05-15T12:02:16.005Z,4.90
2018-05-15T12:03:15.726Z,5.50
2018-05-15T12:05:09.688Z,7.70
2018-05-15T12:06:08.612Z,6.50
2018-05-15T12:08:02.332Z,6.70
2018-05-15T12:09:02.017Z,5.80
2018-05-15T12:10:55.160Z,7.60
2018-05-15T12:11:54.897Z,8.10
2018-05-15T12:13:48.052Z,9.80
2018-05-15T12:14:47.761Z,7.30
2018-05-15T12:16:40.890Z,10.10
2018-05-15T12:17:40.654Z,7.00
2018-05-15T12:19:33.817Z,7.50
2018-05-15T12:20:33.550Z,10.50
2018-05-15T12:22:26.671Z,7.70
2018-05-15T12:23:26.457Z,5.50
2018-05-15T12:25:19.563Z,9.40
2018-05-15T12:26:19.329Z,4.90
2018-05-15T12:28:12.729Z,6.20
2018-05-15T12:29:12.695Z,6.40
2018-05-15T12:31:06.385Z,7.00
2018-05-15T12:32:06.086Z,6.30
2018-05-15T12:33:58.986Z,7.60
2018-05-15T12:34:58.985Z,6.10
2018-05-15T12:36:51.892Z,8.70
2018-05-15T12:37:51.865Z,9.80
2018-05-15T12:39:45.041Z,7.70
2018-05-15T12:40:44.759Z,10.90
2018-05-15T12:42:37.907Z,11.20
2018-05-15T12:43:37.640Z,9.00
2018-05-15T12:45:30.544Z,6.30
2018-05-15T12:46:30.522Z,5.30
2018-05-15T12:48:23.432Z,7.50
2018-05-15T12:49:23.409Z,8.60
2018-05-15T12:51:16.561Z,12.10
2018-05-15T12:52:16.563Z,7.50
2018-05-15T12:54:10.025Z,12.00
2018-05-15T12:55:09.681Z,10.30
2018-05-15T12:57:02.912Z,8.80
2018-05-15T12:58:02.802Z,7.20
2018-05-15T12:59:55.847Z,6.80
2018-05-15T13:00:55.474Z,6.80
2018-05-15T13:02:48.985Z,8.70
2018-05-15T13:03:48.342Z,9.00
2018-05-15T13:05:41.558Z,7.10
2018-05-15T13:06:41.231Z,11.70
2018-05-15T13:08:34.831Z,8.20
2018-05-15T13:09:34.612Z,7.60
2018-05-15T13:11:28.064Z,5.50
2018-05-15T13:12:28.007Z,6.60
2018-05-15T13:14:21.596Z,10.40
2018-05-15T13:15:21.394Z,6.40
2018-05-15T13:17:14.483Z,8.10
2018-05-15T13:18:14.288Z,7.50
2018-05-15T13:20:07.177Z,8.00
2018-05-15T13:21:07.161Z,6.20
2018-05-15T13:23:00.069Z,7.60
2018-05-15T13:24:00.050Z,6.40
2018-05-15T13:25:52.953Z,6.00
2018-05-15T13:26:52.936Z,8.40
2018-05-15T13:28:45.969Z,9.80
2018-05-15T13:29:45.833Z,9.00
2018-05-15T13:31:38.728Z,9.30
2018-05-15T13:32:38.713Z,7.00
2018-05-15T13:34:32.248Z,5.60
2018-05-15T13:35:32.110Z,8.80
2018-05-15T13:37:24.994Z,9.40
2018-05-15T13:38:24.984Z,9.30
2018-05-15T13:40:17.892Z,7.80
2018-05-15T13:41:17.862Z,6.20
2018-05-15T13:43:11.276Z,9.30
2018-05-15T13:44:11.249Z,9.80
2018-05-15T13:46:04.155Z,6.00
2018-05-15T13:47:04.151Z,7.80
2018-05-15T13:48:58.113Z,7.30
2018-05-15T13:49:57.543Z,8.10
2018-05-15T13:51:51.506Z,10.90
2018-05-15T13:52:50.902Z,7.70
2018-05-15T13:54:44.303Z,8.70
2018-05-15T13:55:44.334Z,6.80
2018-05-15T13:57:37.200Z,10.90
2018-05-15T13:58:37.195Z,11.40
2018-05-15T14:00:30.742Z,9.20
2018-05-15T14:01:30.573Z,12.30
2018-05-15T14:03:23.681Z,13.70
2018-05-15T14:04:23.472Z,10.50
2018-05-15T14:06:16.531Z,6.20
2018-05-15T14:07:16.336Z,6.80
2018-05-15T14:09:09.339Z,10.10
2018-05-15T14:10:09.225Z,10.10
2018-05-15T14:12:02.622Z,10.00
2018-05-15T14:13:02.602Z,8.40
2018-05-15T14:14:55.532Z,7.60
2018-05-15T14:15:55.496Z,7.80
2018-05-15T14:17:48.391Z,6.80
2018-05-15T14:18:48.393Z,11.10
2018-05-15T14:20:41.284Z,8.00
2018-05-15T14:21:41.278Z,8.70
2018-05-15T14:23:34.344Z,7.00
2018-05-15T14:24:34.230Z,7.60
2018-05-15T14:26:27.632Z,7.70
2018-05-15T14:27:27.061Z,7.20
2018-05-15T14:29:20.496Z,6.30
2018-05-15T14:30:20.423Z,7.30
2018-05-15T14:32:13.481Z,7.20
2018-05-15T14:33:13.317Z,9.00
2018-05-15T14:35:06.210Z,8.30
2018-05-15T14:36:06.197Z,9.50
2018-05-15T14:37:59.094Z,6.50
2018-05-15T14:38:59.101Z,6.10
2018-05-15T14:40:53.476Z,6.50
2018-05-15T14:41:53.464Z,5.90
2018-05-15T14:43:46.449Z,6.50
2018-05-15T14:44:46.347Z,11.00
2018-05-15T14:46:39.753Z,6.00
2018-05-15T14:47:39.725Z,6.00
2018-05-15T14:49:32.864Z,7.50
2018-05-15T14:50:32.640Z,7.30
2018-05-15T14:52:26.025Z,9.70
2018-05-15T14:53:26.034Z,8.30
2018-05-15T14:55:19.204Z,5.50
2018-05-15T14:56:19.136Z,7.70
2018-05-15T14:58:13.627Z,9.70
2018-05-15T14:59:12.289Z,8.70
2018-05-15T15:01:06.978Z,9.30
2018-05-15T15:02:05.161Z,9.50
2018-05-15T15:03:58.071Z,6.60
2018-05-15T15:04:58.060Z,7.10
2018-05-15T15:06:51.416Z,7.50
2018-05-15T15:07:50.931Z,6.70
2018-05-15T15:09:43.862Z,10.20
2018-05-15T15:10:43.820Z,7.40
2018-05-15T15:12:36.987Z,7.60
2018-05-15T15:13:36.725Z,6.30
2018-05-15T15:15:30.202Z,7.40
2018-05-15T15:16:30.377Z,10.80
2018-05-15T15:18:23.362Z,7.30
2018-05-15T15:19:22.973Z,8.60
2018-05-15T15:21:16.643Z,6.70
2018-05-15T15:22:16.349Z,8.60
2018-05-15T15:24:09.529Z,8.20
2018-05-15T15:25:09.258Z,8.50
2018-05-15T15:27:02.217Z,8.40
2018-05-15T15:28:02.146Z,7.40
2018-05-15T15:29:55.089Z,8.10
2018-05-15T15:30:55.020Z,12.10
2018-05-15T15:32:48.724Z,12.00
2018-05-15T15:33:48.444Z,7.70
2018-05-15T15:35:41.593Z,9.90
2018-05-15T15:36:41.306Z,9.60
2018-05-15T15:38:34.935Z,9.60
2018-05-15T15:39:34.678Z,11.10
2018-05-15T15:41:28.379Z,6.80
2018-05-15T15:42:27.629Z,6.40
2018-05-15T15:44:22.267Z,12.60
2018-05-15T15:45:22.263Z,11.60
2018-05-15T15:47:15.360Z,8.30
2018-05-15T15:48:15.340Z,9.30
2018-05-15T15:50:08.243Z,7.40
2018-05-15T15:51:08.244Z,6.60
2018-05-15T15:53:01.158Z,9.20
2018-05-15T15:54:01.140Z,8.70
2018-05-15T15:55:54.801Z,8.60
2018-05-15T15:56:54.513Z,8.80
2018-05-15T15:58:47.421Z,6.60
2018-05-15T15:59:47.417Z,8.60
2018-05-15T16:01:41.209Z,8.20
2018-05-15T16:02:40.767Z,8.60
2018-05-15T16:04:34.035Z,8.90
2018-05-15T16:05:33.676Z,8.90
2018-05-15T16:07:27.381Z,11.60
2018-05-15T16:08:26.590Z,8.60
2018-05-15T16:10:19.745Z,9.90
2018-05-15T16:11:19.499Z,7.30
2018-05-15T16:13:12.758Z,8.90
2018-05-15T16:14:12.329Z,9.40
2018-05-15T16:16:05.548Z,7.40
2018-05-15T16:17:05.277Z,8.40
2018-05-15T16:18:58.161Z,7.40
2018-05-15T16:19:58.160Z,7.80
2018-05-15T16:21:51.861Z,8.30
2018-05-15T16:22:51.563Z,8.90
2018-05-15T16:24:44.500Z,11.00
2018-05-15T16:25:44.732Z,8.70
2018-05-15T16:27:37.319Z,8.00
2018-05-15T16:28:37.328Z,9.60
2018-05-15T16:30:30.479Z,6.20
2018-05-15T16:31:30.845Z,7.30
2018-05-15T16:33:23.111Z,8.10
2018-05-15T16:34:23.421Z,8.40
2018-05-15T16:36:16.794Z,7.10
2018-05-15T16:37:16.444Z,5.10
2018-05-15T16:39:09.656Z,9.90
2018-05-15T16:40:09.578Z,7.10
2018-05-15T16:42:02.732Z,8.70
2018-05-15T16:43:02.978Z,8.30
2018-05-15T16:44:55.611Z,8.10
2018-05-15T16:45:55.607Z,8.50
2018-05-15T16:47:49.316Z,8.30
2018-05-15T16:48:48.974Z,11.00
2018-05-15T16:50:42.096Z,8.90
2018-05-15T16:51:41.868Z,6.80
2018-05-15T16:53:35.013Z,7.70
2018-05-15T16:54:34.773Z,8.70
2018-05-15T16:56:28.023Z,9.60
2018-05-15T16:57:27.650Z,7.80
2018-05-15T16:59:21.854Z,8.30
2018-05-15T17:00:21.570Z,7.20
2018-05-15T17:02:14.497Z,8.50
2018-05-15T17:03:14.469Z,8.80
2018-05-15T17:05:07.618Z,8.20
2018-05-15T17:06:07.346Z,10.30
2018-05-15T17:08:01.070Z,7.40
2018-05-15T17:09:00.739Z,9.00
2018-05-15T17:10:54.435Z,10.00
2018-05-15T17:11:54.118Z,9.40
2018-05-15T17:13:47.588Z,10.20
2018-05-15T17:14:47.497Z,9.40
2018-05-15T17:16:40.668Z,6.60
2018-05-15T17:17:40.603Z,6.10
2018-05-15T17:19:33.469Z,5.90
2018-05-15T17:20:33.297Z,6.30
2018-05-15T17:22:27.014Z,9.40
2018-05-15T17:23:26.423Z,7.90
2018-05-15T17:25:19.857Z,8.90
2018-05-15T17:26:19.818Z,7.30
2018-05-15T17:28:13.251Z,9.70
2018-05-15T17:29:13.178Z,6.70
2018-05-15T17:31:06.141Z,6.10
2018-05-15T17:32:05.803Z,7.90
2018-05-15T17:33:59.273Z,6.50
2018-05-15T17:34:59.423Z,9.90
2018-05-15T17:36:52.783Z,6.00
2018-05-15T17:37:52.536Z,9.20
2018-05-15T17:39:46.175Z,6.00
2018-05-15T17:40:45.962Z,7.20
2018-05-15T17:42:38.875Z,7.40
2018-05-15T17:43:38.827Z,11.50
2018-05-15T17:45:31.770Z,8.00
2018-05-15T17:46:31.682Z,8.10
2018-05-15T17:48:24.811Z,7.70
2018-05-15T17:49:24.576Z,6.80
2018-05-15T17:51:17.704Z,6.70
2018-05-15T17:52:17.468Z,6.00
2018-05-15T17:54:10.946Z,6.50
2018-05-15T17:55:10.357Z,5.90
2018-05-15T17:57:03.932Z,9.90
2018-05-15T17:58:03.719Z,7.80
2018-05-15T17:59:57.128Z,8.40
2018-05-15T18:00:57.089Z,8.00
2018-05-15T18:02:50.077Z,11.50
2018-05-15T18:03:49.972Z,8.80
2018-05-15T18:05:43.154Z,8.30
2018-05-15T18:06:42.859Z,9.70
2018-05-15T18:08:36.101Z,6.90
2018-05-15T18:09:36.056Z,5.80
2018-05-15T18:11:28.922Z,5.90
2018-05-15T18:12:28.967Z,8.20
2018-05-15T18:14:22.638Z,11.20
2018-05-15T18:15:22.359Z,11.00
2018-05-15T18:17:15.462Z,10.60
2018-05-15T18:18:15.158Z,10.90
2018-05-15T18:20:08.160Z,8.20
2018-05-15T18:21:08.366Z,9.00
2018-05-15T18:23:01.830Z,7.80
2018-05-15T18:24:01.853Z,10.40
2018-05-15T18:25:55.219Z,10.40
2018-05-15T18:26:57.106Z,9.70
2018-05-15T18:28:48.527Z,6.80
2018-05-15T18:29:48.216Z,11.30
2018-05-15T18:31:41.935Z,8.90
2018-05-15T18:32:41.883Z,7.70
2018-05-15T18:34:34.921Z,7.50
2018-05-15T18:35:34.500Z,8.00
2018-05-15T18:37:27.908Z,11.90
2018-05-15T18:38:28.176Z,11.50
2018-05-15T18:40:21.558Z,9.30
2018-05-15T18:41:21.915Z,8.70
2018-05-15T18:43:14.481Z,7.50
2018-05-15T18:44:14.402Z,9.30
2018-05-15T18:46:07.066Z,9.70
2018-05-15T18:47:07.034Z,9.60
2018-05-15T18:48:59.929Z,8.70
2018-05-15T18:49:59.907Z,11.20
2018-05-15T18:51:52.809Z,9.90
2018-05-15T18:52:52.815Z,11.60
2018-05-15T18:54:46.510Z,9.10
2018-05-15T18:55:46.175Z,11.20
2018-05-15T18:57:39.559Z,9.00
2018-05-15T18:58:39.536Z,8.10
2018-05-15T19:00:33.198Z,7.90
2018-05-15T19:01:32.924Z,8.30
2018-05-15T19:03:26.166Z,10.90
2018-05-15T19:04:25.793Z,9.10
2018-05-15T19:06:19.526Z,9.30
2018-05-15T19:07:19.454Z,9.30
2018-05-15T19:09:12.349Z,9.50
2018-05-15T19:10:12.064Z,10.80
2018-05-15T19:12:05.228Z,9.70
2018-05-15T19:13:05.248Z,9.90
2018-05-15T19:14:59.571Z,12.50
2018-05-15T19:15:59.310Z,9.30
2018-05-15T19:17:53.051Z,9.70
2018-05-15T19:18:52.196Z,11.80
2018-05-15T19:20:45.845Z,11.90
2018-05-15T19:21:45.574Z,10.20
2018-05-15T19:23:38.547Z,12.30
2018-05-15T19:24:38.732Z,11.90
2018-05-15T19:26:31.857Z,10.50
2018-05-15T19:27:32.118Z,8.10
2018-05-15T19:29:24.821Z,13.00
2018-05-15T19:30:24.960Z,9.60
2018-05-15T19:32:18.387Z,14.50
2018-05-15T19:33:18.127Z,12.90
2018-05-15T19:35:12.061Z,12.20
2018-05-15T19:36:11.430Z,14.20
2018-05-15T19:38:04.360Z,7.80
2018-05-15T19:39:04.319Z,10.60
2018-05-15T19:40:58.150Z,11.80
2018-05-15T19:41:57.194Z,8.50
2018-05-15T19:43:50.397Z,9.80
2018-05-15T19:44:50.378Z,8.20
2018-05-15T19:46:43.322Z,11.40
2018-05-15T19:47:43.273Z,10.60
2018-05-15T19:49:36.736Z,7.30
2018-05-15T19:50:36.449Z,13.60
2018-05-15T19:52:31.359Z,16.50
2018-05-15T19:53:31.193Z,12.80
2018-05-15T19:55:24.991Z,11.60
2018-05-15T19:56:24.086Z,11.50
2018-05-15T19:58:16.981Z,14.40
2018-05-15T19:59:16.594Z,10.40
2018-05-15T20:01:11.278Z,10.80
2018-05-15T20:02:10.197Z,10.30
2018-05-15T20:04:04.175Z,9.00
2018-05-15T20:05:03.197Z,12.80
2018-05-15T20:06:57.621Z,9.90
2018-05-15T20:07:57.549Z,10.20
2018-05-15T20:09:50.790Z,10.90
2018-05-15T20:10:50.342Z,10.40
2018-05-15T20:12:46.268Z,11.30
2018-05-15T20:13:46.252Z,12.20
2018-05-15T20:15:40.728Z,14.80
2018-05-15T20:16:39.428Z,11.80
2018-05-15T20:18:33.102Z,13.70
2018-05-15T20:19:33.079Z,10.00
2018-05-15T20:21:26.967Z,12.40
2018-05-15T20:22:26.381Z,12.30
2018-05-15T20:24:19.872Z,13.30
2018-05-15T20:25:19.830Z,13.80
2018-05-15T20:27:13.647Z,15.40
2018-05-15T20:28:12.991Z,9.20
2018-05-15T20:30:07.850Z,14.60
2018-05-15T20:31:07.804Z,15.60
2018-05-15T20:33:00.302Z,10.60
2018-05-15T20:34:00.242Z,11.20
2018-05-15T20:35:53.065Z,9.40
2018-05-15T20:36:53.637Z,10.40
2018-05-15T20:38:47.413Z,14.30
2018-05-15T20:39:46.970Z,12.10
2018-05-15T20:41:41.021Z,12.10
2018-05-15T20:42:40.412Z,14.90
2018-05-15T20:44:33.282Z,11.70
2018-05-15T20:45:33.770Z,12.20
2018-05-15T20:47:26.677Z,12.80
2018-05-15T20:48:26.583Z,14.50
2018-05-15T20:50:20.091Z,10.50
2018-05-15T20:51:20.451Z,11.60
2018-05-15T20:53:13.366Z,10.10
2018-05-15T20:54:13.033Z,13.60
2018-05-15T20:56:07.315Z,11.80
2018-05-15T20:57:06.756Z,13.60
2018-05-15T20:59:00.218Z,11.50
2018-05-15T21:00:00.128Z,10.10
2018-05-15T21:01:54.028Z,12.30
2018-05-15T21:02:53.482Z,11.50
2018-05-15T21:04:47.936Z,13.80
2018-05-15T21:05:46.895Z,16.80
2018-05-15T21:07:39.437Z,13.70
2018-05-15T21:08:39.080Z,12.70
2018-05-15T21:10:33.424Z,13.40
2018-05-15T21:11:33.343Z,13.90
2018-05-15T21:13:26.759Z,14.30
2018-05-15T21:14:26.160Z,12.00
2018-05-15T21:16:20.649Z,11.30
2018-05-15T21:17:19.273Z,16.70
2018-05-15T21:19:15.028Z,10.70
2018-05-15T21:20:13.508Z,10.60
2018-05-15T21:22:07.437Z,11.60
2018-05-15T21:23:06.868Z,10.90
2018-05-15T21:25:00.771Z,8.90
2018-05-15T21:26:00.443Z,11.80
2018-05-15T21:27:53.673Z,14.20
2018-05-15T21:28:53.643Z,10.00
2018-05-15T21:30:47.052Z,12.20
2018-05-15T21:31:47.025Z,9.80
2018-05-15T21:33:40.404Z,9.90
2018-05-15T21:34:40.087Z,13.20
2018-05-15T21:36:33.732Z,11.60
2018-05-15T21:37:34.225Z,14.00
2018-05-15T21:39:27.696Z,10.70
2018-05-15T21:40:27.649Z,13.20
2018-05-15T21:42:21.594Z,14.00
2018-05-15T21:43:20.431Z,11.20
2018-05-15T21:45:13.989Z,14.10
2018-05-15T21:46:14.417Z,10.40
2018-05-15T21:48:07.406Z,11.20
2018-05-15T21:49:06.838Z,11.50
2018-05-15T21:51:01.725Z,13.80
2018-05-15T21:52:00.244Z,12.30
2018-05-15T21:53:54.174Z,13.10
2018-05-15T21:54:54.593Z,14.40
2018-05-15T21:56:48.448Z,8.50
2018-05-15T21:57:47.029Z,13.00
2018-05-15T21:59:42.978Z,11.50
2018-05-15T22:00:42.871Z,14.80
2018-05-15T22:02:35.978Z,12.40
2018-05-15T22:03:35.143Z,12.70
2018-05-15T22:05:28.768Z,12.40
2018-05-15T22:06:28.745Z,12.90
2018-05-15T22:08:22.141Z,13.80
2018-05-15T22:09:22.660Z,9.50
2018-05-15T22:11:15.820Z,11.10
2018-05-15T22:12:15.499Z,9.30
2018-05-15T22:14:08.914Z,10.10
2018-05-15T22:15:08.499Z,12.80
2018-05-15T22:17:02.293Z,13.40
2018-05-15T22:18:02.273Z,15.00
2018-05-15T22:19:56.173Z,14.60
2018-05-15T22:20:55.289Z,15.40
2018-05-15T22:22:49.044Z,10.50
2018-05-15T22:23:48.625Z,10.40
2018-05-15T22:25:42.397Z,11.30
2018-05-15T22:26:42.370Z,11.00
2018-05-15T22:28:35.853Z,13.20
2018-05-15T22:29:37.192Z,13.10
2018-05-15T22:31:29.717Z,11.50
2018-05-15T22:32:29.547Z,14.70
2018-05-15T22:34:22.997Z,9.10
2018-05-15T22:35:22.982Z,13.70
2018-05-15T22:37:16.353Z,10.10
2018-05-15T22:38:15.844Z,10.40
2018-05-15T22:40:09.079Z,11.90
2018-05-15T22:41:10.708Z,11.30
2018-05-15T22:43:01.961Z,13.10
2018-05-15T22:44:02.017Z,11.40
2018-05-15T22:45:55.377Z,12.50
2018-05-15T22:46:56.394Z,10.80
2018-05-15T22:48:50.421Z,13.30
2018-05-15T22:49:49.738Z,14.40
2018-05-15T22:51:43.071Z,12.80
2018-05-15T22:52:42.126Z,12.90
2018-05-15T22:54:35.578Z,13.30
2018-05-15T22:55:35.971Z,13.00
2018-05-15T22:57:30.513Z,11.20
2018-05-15T22:58:28.882Z,10.10
2018-05-15T23:00:23.342Z,14.70
2018-05-15T23:01:22.823Z,14.50
2018-05-15T23:03:15.718Z,11.90
2018-05-15T23:04:15.653Z,12.10
2018-05-15T23:06:10.020Z,13.50
2018-05-15T23:07:08.771Z,15.80
2018-05-15T23:09:03.013Z,10.90
2018-05-15T23:10:03.857Z,12.20
2018-05-15T23:11:56.871Z,14.70
2018-05-15T23:12:57.280Z,17.20
2018-05-15T23:14:50.798Z,9.10
2018-05-15T23:15:49.790Z,10.20
2018-05-15T23:17:45.094Z,12.90
2018-05-15T23:18:44.058Z,13.50
2018-05-15T23:20:36.924Z,12.30
2018-05-15T23:21:36.945Z,13.30
2018-05-15T23:23:30.394Z,14.10
2018-05-15T23:24:28.749Z,12.90
2018-05-15T23:26:23.364Z,13.00
2018-05-15T23:27:23.378Z,9.60
2018-05-15T23:29:16.318Z,12.50
2018-05-15T23:30:16.255Z,10.20
2018-05-15T23:32:10.121Z,16.10
2018-05-15T23:33:09.006Z,13.50
2018-05-15T23:35:03.082Z,13.00
2018-05-15T23:36:04.005Z,16.00
2018-05-15T23:37:56.867Z,12.10
2018-05-15T23:38:55.516Z,14.30
2018-05-15T23:40:49.818Z,14.10
2018-05-15T23:41:49.283Z,12.60
2018-05-15T23:43:43.777Z,13.70
2018-05-15T23:44:42.471Z,14.40
2018-05-15T23:46:35.872Z,13.00
2018-05-15T23:47:36.320Z,11.60
2018-05-15T23:49:29.186Z,16.10